AGGH/HIR METAR and TAF weather

Enter ICAO airport designator
Station Type Date Time Source
AGGH METAR 2022/01/28 00:00 UTC NOAA

AGGH 280000Z 29006KT 9999 -SHRA FEW016 FEW017CB SCT030 OVC100 26/24 Q1007


Station Type Date Time Source
AGGH Decoded METAR 2022/01/28 00:00 UTC NOAA

Honiara / Henderson, Solomon Islands (AGGH) 09-25S 160-03E 9M
Jan 27, 2022 - 07:00 PM EST / 2022.01.28 0000 UTC
Wind: from the WNW (290 degrees) at 7 MPH (6 KT):0
Visibility: greater than 7 mile(s):0
Sky conditions: overcast
Weather: light rain showers; Cumulonimbus clouds observed
Temperature: 78 F (26 C)
Dew Point: 75 F (24 C)
Relative Humidity: 88%
Pressure (altimeter): 29.74 in. Hg (1007 hPa)
ob: AGGH 280000Z 29006KT 9999 -SHRA FEW016 FEW017CB SCT030 OVC100 26/24 Q1007
cycle: 0

Station Type Date Time Source
AGGH TAF 2022/01/27 18:20 UTC NOAA

TAF AGGH 271710Z 2718/2818 32015KT 9999 -SHRA SCT016 SCT030 BKN100 INTER 2720/2806 5000 TSSH SCT015 FEW016CB BKN025 T 25 26 29 28 Q 1004 1006 1006 1004

Example: see airport list